createdAt,value
2022-08-17T00:00:42.758Z,23.90
2022-08-17T00:03:17.194Z,23.90
2022-08-17T00:05:50.793Z,23.90
2022-08-17T00:08:23.469Z,23.90
2022-08-17T00:10:53.587Z,23.80
2022-08-17T00:13:26.831Z,23.80
2022-08-17T00:16:00.951Z,23.80
2022-08-17T00:18:58.229Z,23.80
2022-08-17T00:21:23.908Z,23.80
2022-08-17T00:23:55.167Z,23.70
2022-08-17T00:26:34.891Z,23.70
2022-08-17T00:29:19.400Z,23.70
2022-08-17T00:31:50.294Z,23.60
2022-08-17T00:34:18.900Z,23.60
2022-08-17T00:36:46.845Z,23.60
2022-08-17T00:39:14.785Z,23.60
2022-08-17T00:41:43.133Z,23.50
2022-08-17T00:44:12.036Z,23.50
2022-08-17T00:46:43.820Z,23.50
2022-08-17T00:49:15.601Z,23.50
2022-08-17T00:51:48.670Z,23.50
2022-08-17T00:54:21.429Z,23.50
2022-08-17T00:56:54.644Z,23.40
2022-08-17T00:59:28.290Z,23.40
2022-08-17T01:01:56.338Z,23.40
2022-08-17T01:04:28.475Z,23.30
2022-08-17T01:06:58.370Z,23.30
2022-08-17T01:09:26.837Z,23.30
2022-08-17T01:11:55.063Z,23.30
2022-08-17T01:14:27.228Z,23.20
2022-08-17T01:16:57.253Z,23.10
2022-08-17T01:19:34.206Z,23.10
2022-08-17T01:22:09.143Z,23.10
2022-08-17T01:24:41.676Z,23.00
2022-08-17T01:27:10.908Z,23.00
2022-08-17T01:29:44.618Z,23.00
2022-08-17T01:32:13.477Z,23.00
2022-08-17T01:34:43.383Z,23.00
2022-08-17T01:37:13.782Z,22.90
2022-08-17T01:39:48.459Z,22.90
2022-08-17T01:42:26.777Z,23.00
2022-08-17T01:45:02.819Z,22.90
2022-08-17T01:47:31.400Z,22.90
2022-08-17T01:49:59.407Z,22.90
2022-08-17T01:52:27.451Z,22.80
2022-08-17T01:54:57.374Z,22.80
2022-08-17T01:57:25.354Z,22.80
2022-08-17T01:59:53.258Z,22.80
2022-08-17T02:02:30.665Z,22.80
2022-08-17T02:04:59.906Z,22.80
2022-08-17T02:07:28.303Z,22.70
2022-08-17T02:09:57.789Z,22.70
2022-08-17T02:12:38.877Z,22.70
2022-08-17T02:15:10.148Z,22.70
2022-08-17T02:17:40.419Z,22.60
2022-08-17T02:20:10.575Z,22.60
2022-08-17T02:22:44.206Z,22.60
2022-08-17T02:25:18.969Z,22.60
2022-08-17T02:27:47.151Z,22.60
2022-08-17T02:30:49.849Z,22.50
2022-08-17T02:33:06.386Z,22.50
2022-08-17T02:35:38.491Z,22.50
2022-08-17T02:38:07.765Z,22.40
2022-08-17T02:40:40.592Z,22.40
2022-08-17T02:43:09.964Z,22.40
2022-08-17T02:45:38.232Z,22.40
2022-08-17T02:48:06.904Z,22.40
2022-08-17T02:50:34.926Z,22.30
2022-08-17T02:53:04.812Z,22.30
2022-08-17T02:55:42.505Z,22.30
2022-08-17T02:58:12.112Z,22.30
2022-08-17T03:00:44.075Z,22.20
2022-08-17T03:03:13.597Z,22.20
2022-08-17T03:05:41.720Z,22.20
2022-08-17T03:08:10.465Z,22.20
2022-08-17T03:10:44.225Z,22.10
2022-08-17T03:13:14.401Z,22.10
2022-08-17T03:15:45.717Z,22.10
2022-08-17T03:18:24.076Z,22.00
2022-08-17T03:20:55.277Z,22.00
2022-08-17T03:23:24.441Z,21.90
2022-08-17T03:25:55.914Z,21.90
2022-08-17T03:28:25.173Z,21.90
2022-08-17T03:30:53.873Z,21.90
2022-08-17T03:33:22.470Z,21.80
2022-08-17T03:35:50.985Z,21.80
2022-08-17T03:38:19.809Z,21.80
2022-08-17T03:40:56.237Z,21.80
2022-08-17T03:43:30.728Z,21.70
2022-08-17T03:46:28.837Z,21.70
2022-08-17T03:49:21.138Z,21.70
2022-08-17T03:52:06.692Z,21.60
2022-08-17T03:54:52.047Z,21.60
2022-08-17T03:57:20.258Z,21.60
2022-08-17T03:59:49.830Z,21.50
2022-08-17T04:02:22.365Z,21.50
2022-08-17T04:04:52.153Z,21.40
2022-08-17T04:07:21.617Z,21.40
2022-08-17T04:09:50.649Z,21.30
2022-08-17T04:12:21.494Z,21.30
2022-08-17T04:14:53.000Z,21.20
2022-08-17T04:17:25.485Z,21.20
2022-08-17T04:19:54.749Z,21.10
2022-08-17T04:22:30.042Z,21.00
2022-08-17T04:25:08.468Z,21.00
2022-08-17T04:27:36.756Z,20.90
2022-08-17T04:30:08.145Z,20.90
2022-08-17T04:33:05.270Z,20.80
2022-08-17T04:35:42.104Z,20.80
2022-08-17T04:38:13.587Z,20.80
2022-08-17T04:41:00.213Z,20.70
2022-08-17T04:43:31.908Z,20.80
2022-08-17T04:46:05.430Z,20.70
2022-08-17T04:48:37.756Z,20.70
2022-08-17T04:51:10.604Z,20.70
2022-08-17T04:53:40.507Z,20.80
2022-08-17T04:56:16.213Z,20.70
2022-08-17T04:58:53.501Z,20.70
2022-08-17T05:01:28.987Z,20.70
2022-08-17T05:04:21.127Z,20.70
2022-08-17T05:06:50.303Z,20.80
2022-08-17T05:09:19.259Z,20.80
2022-08-17T05:11:47.713Z,20.80
2022-08-17T05:14:15.885Z,20.80
2022-08-17T05:16:48.165Z,20.80
2022-08-17T05:19:16.126Z,20.80
2022-08-17T05:21:44.264Z,20.80
2022-08-17T05:24:38.510Z,20.80
2022-08-17T05:27:06.194Z,20.80
2022-08-17T05:29:35.992Z,20.80
2022-08-17T05:32:39.571Z,20.80
2022-08-17T05:35:00.948Z,20.80
2022-08-17T05:37:28.973Z,20.80
2022-08-17T05:39:57.200Z,20.80
2022-08-17T05:42:25.231Z,20.80
2022-08-17T05:44:57.534Z,20.80
2022-08-17T05:47:28.514Z,20.80
2022-08-17T05:49:57.428Z,20.80
2022-08-17T05:52:41.120Z,20.80
2022-08-17T05:55:25.594Z,20.80
2022-08-17T05:58:11.234Z,20.80
2022-08-17T06:00:51.836Z,20.80
2022-08-17T06:03:48.784Z,20.80
2022-08-17T06:06:34.459Z,20.80
2022-08-17T06:09:27.631Z,20.90
2022-08-17T06:12:26.806Z,20.90
2022-08-17T06:15:16.615Z,20.90
2022-08-17T06:17:45.159Z,20.90
2022-08-17T06:20:16.665Z,20.90
2022-08-17T06:22:50.468Z,20.90
2022-08-17T06:25:27.196Z,21.00
2022-08-17T06:28:02.894Z,21.00
2022-08-17T06:30:59.352Z,21.00
2022-08-17T06:33:39.326Z,21.00
2022-08-17T06:36:30.117Z,21.10
2022-08-17T06:39:15.331Z,21.10
2022-08-17T06:41:54.086Z,21.20
2022-08-17T06:44:47.546Z,21.20
2022-08-17T06:47:28.062Z,21.30
2022-08-17T06:50:14.449Z,21.30
2022-08-17T06:52:54.968Z,21.40
2022-08-17T06:55:37.919Z,21.40
2022-08-17T06:58:16.290Z,21.50
2022-08-17T07:00:48.539Z,21.60
2022-08-17T07:03:30.253Z,21.80
2022-08-17T07:06:04.275Z,21.90
2022-08-17T07:08:51.973Z,22.00
2022-08-17T07:11:27.977Z,22.20
2022-08-17T07:14:16.977Z,22.40
2022-08-17T07:16:51.704Z,22.50
2022-08-17T07:19:24.282Z,22.70
2022-08-17T07:22:06.775Z,22.80
2022-08-17T07:24:45.155Z,22.90
2022-08-17T07:27:21.185Z,23.00
2022-08-17T07:29:56.508Z,23.20
2022-08-17T07:32:31.380Z,23.30
2022-08-17T07:35:23.042Z,23.30
2022-08-17T07:38:24.152Z,23.50
2022-08-17T07:41:06.317Z,23.50
2022-08-17T07:43:37.592Z,23.60
2022-08-17T07:46:34.964Z,23.60
2022-08-17T07:49:25.878Z,23.70
2022-08-17T07:52:13.544Z,23.70
2022-08-17T07:54:56.715Z,23.80
2022-08-17T07:57:35.437Z,23.80
2022-08-17T08:00:29.169Z,23.90
2022-08-17T08:03:26.147Z,23.90
2022-08-17T08:06:00.175Z,23.90
2022-08-17T08:08:34.469Z,24.00
2022-08-17T08:11:10.447Z,24.00
2022-08-17T08:13:43.663Z,24.10
2022-08-17T08:16:25.227Z,24.10
2022-08-17T08:18:58.011Z,24.20
2022-08-17T08:21:37.399Z,24.20
2022-08-17T08:24:49.829Z,24.20
2022-08-17T08:27:33.471Z,24.20
2022-08-17T08:30:09.950Z,24.30
2022-08-17T08:33:06.826Z,24.40
2022-08-17T08:35:45.280Z,24.40
2022-08-17T08:38:26.697Z,24.40
2022-08-17T08:41:26.188Z,24.50
2022-08-17T08:44:08.859Z,24.60
2022-08-17T08:46:52.458Z,24.70
2022-08-17T08:50:02.603Z,24.80
2022-08-17T08:52:52.139Z,24.90
2022-08-17T08:55:32.234Z,25.00
2022-08-17T08:58:09.300Z,25.10
2022-08-17T09:01:01.448Z,25.20
2022-08-17T09:04:21.505Z,25.20
2022-08-17T09:07:09.731Z,25.30
2022-08-17T09:09:59.315Z,25.40
2022-08-17T09:12:41.152Z,25.60
2022-08-17T09:15:18.570Z,25.60
2022-08-17T09:18:14.931Z,25.70
2022-08-17T09:20:56.887Z,25.80
2022-08-17T09:23:35.148Z,25.90
2022-08-17T09:26:12.833Z,26.00
2022-08-17T09:28:48.790Z,26.00
2022-08-17T09:31:26.036Z,26.10
2022-08-17T09:34:00.814Z,26.10
2022-08-17T09:36:41.129Z,26.20
2022-08-17T09:39:14.262Z,26.30
2022-08-17T09:41:49.619Z,26.40
2022-08-17T09:44:29.454Z,26.40
2022-08-17T09:47:06.517Z,26.50
2022-08-17T09:49:42.577Z,26.50
2022-08-17T09:52:19.963Z,26.50
2022-08-17T09:54:50.817Z,26.60
2022-08-17T09:57:38.888Z,26.70
2022-08-17T10:00:25.037Z,26.70
2022-08-17T10:03:19.753Z,26.80
2022-08-17T10:06:01.174Z,26.80
2022-08-17T10:08:43.031Z,26.80
2022-08-17T10:11:52.547Z,26.90
2022-08-17T10:14:37.537Z,26.90
2022-08-17T10:17:23.723Z,27.00
2022-08-17T10:20:03.949Z,27.00
2022-08-17T10:23:03.971Z,27.00
2022-08-17T10:26:09.869Z,27.00
2022-08-17T10:28:47.743Z,27.10
2022-08-17T10:31:34.632Z,27.10
2022-08-17T10:34:27.934Z,27.10
2022-08-17T10:37:12.951Z,27.10
2022-08-17T10:39:52.624Z,27.10
2022-08-17T10:42:32.647Z,27.20
2022-08-17T10:45:08.220Z,27.20
2022-08-17T10:48:04.755Z,27.20
2022-08-17T10:51:07.567Z,27.20
2022-08-17T10:53:53.586Z,27.30
2022-08-17T10:56:42.149Z,27.30
2022-08-17T10:59:50.344Z,27.40
2022-08-17T11:02:28.058Z,27.40
2022-08-17T11:05:19.872Z,27.40
2022-08-17T11:08:15.310Z,27.50
2022-08-17T11:11:11.763Z,27.50
2022-08-17T11:13:53.055Z,27.50
2022-08-17T11:16:48.387Z,27.50
2022-08-17T11:20:06.415Z,27.50
2022-08-17T11:23:23.971Z,27.50
2022-08-17T11:25:55.193Z,27.60
2022-08-17T11:28:28.085Z,27.60
2022-08-17T11:31:01.969Z,27.60
2022-08-17T11:33:59.734Z,27.60
2022-08-17T11:37:06.404Z,27.70
2022-08-17T11:40:06.939Z,27.70
2022-08-17T11:42:58.569Z,27.70
2022-08-17T11:46:02.023Z,27.70
2022-08-17T11:48:57.252Z,27.70
2022-08-17T11:52:15.129Z,27.70
2022-08-17T11:54:47.195Z,27.70
2022-08-17T11:58:00.168Z,27.70
2022-08-17T12:00:57.616Z,27.70
2022-08-17T12:03:53.782Z,27.70
2022-08-17T12:06:40.884Z,27.70
2022-08-17T12:09:19.195Z,27.70
2022-08-17T12:12:12.554Z,27.70
2022-08-17T12:17:41.499Z,27.70
2022-08-17T12:20:16.316Z,27.60
2022-08-17T12:23:00.709Z,27.60
2022-08-17T12:25:39.986Z,27.60
2022-08-17T12:28:25.295Z,27.50
2022-08-17T12:30:54.761Z,27.50
2022-08-17T12:33:28.891Z,27.50
2022-08-17T12:36:02.665Z,27.50
2022-08-17T12:38:34.683Z,27.50
2022-08-17T12:41:22.509Z,27.50
2022-08-17T12:44:01.439Z,27.50
2022-08-17T12:46:33.485Z,27.40
2022-08-17T12:49:24.122Z,27.40
2022-08-17T12:52:01.457Z,27.40
2022-08-17T12:54:40.540Z,27.40
2022-08-17T12:57:14.510Z,27.40
2022-08-17T12:59:48.274Z,27.40
2022-08-17T13:02:38.556Z,27.40
2022-08-17T13:05:17.234Z,27.40
2022-08-17T13:07:46.475Z,27.40
2022-08-17T13:10:22.519Z,27.40
2022-08-17T13:12:53.606Z,27.40
2022-08-17T13:15:27.357Z,27.40
2022-08-17T13:18:07.009Z,27.40
2022-08-17T13:20:36.886Z,27.40
2022-08-17T13:23:12.666Z,27.40
2022-08-17T13:25:41.100Z,27.40
2022-08-17T13:28:30.602Z,27.40
2022-08-17T13:31:26.283Z,27.40
2022-08-17T13:34:13.103Z,27.40
2022-08-17T13:36:42.144Z,27.40
2022-08-17T13:39:19.688Z,27.40
2022-08-17T13:41:49.823Z,27.40
2022-08-17T13:44:39.163Z,27.40
2022-08-17T13:47:18.813Z,27.40
2022-08-17T13:49:49.204Z,27.50
2022-08-17T13:52:38.819Z,27.50
2022-08-17T13:55:18.526Z,27.50
2022-08-17T13:57:47.803Z,27.60
2022-08-17T14:00:30.071Z,27.60
2022-08-17T14:02:58.649Z,27.60
2022-08-17T14:05:27.322Z,27.70
2022-08-17T14:07:59.140Z,27.70
2022-08-17T14:10:28.665Z,27.70
2022-08-17T14:12:57.395Z,27.70
2022-08-17T14:15:55.802Z,27.70
2022-08-17T14:18:45.655Z,27.70
2022-08-17T14:21:08.267Z,27.80
2022-08-17T14:23:36.619Z,27.80
2022-08-17T14:26:05.641Z,27.80
2022-08-17T14:28:33.809Z,27.90
2022-08-17T14:31:08.377Z,28.00
2022-08-17T14:33:36.345Z,28.10
2022-08-17T14:36:08.371Z,28.20
2022-08-17T14:38:37.263Z,28.30
2022-08-17T14:41:06.300Z,28.40
2022-08-17T14:43:39.838Z,28.50
2022-08-17T14:46:12.018Z,28.60
2022-08-17T14:48:40.643Z,28.60
2022-08-17T14:51:08.877Z,28.70
2022-08-17T14:53:37.617Z,28.70
2022-08-17T14:56:06.129Z,28.70
2022-08-17T14:58:34.160Z,28.70
2022-08-17T15:01:02.204Z,28.70
2022-08-17T15:03:31.648Z,28.60
2022-08-17T15:05:59.674Z,28.60
2022-08-17T15:08:28.241Z,28.60
2022-08-17T15:10:56.287Z,28.70
2022-08-17T15:13:27.723Z,28.70
2022-08-17T15:16:07.393Z,28.70
2022-08-17T15:18:37.033Z,28.60
2022-08-17T15:21:08.016Z,28.60
2022-08-17T15:23:36.646Z,28.50
2022-08-17T15:26:04.638Z,28.40
2022-08-17T15:28:32.911Z,28.40
2022-08-17T15:31:00.869Z,28.30
2022-08-17T15:33:30.246Z,28.30
2022-08-17T15:36:02.770Z,28.20
2022-08-17T15:38:39.021Z,28.20
2022-08-17T15:41:08.713Z,28.10
2022-08-17T15:43:37.099Z,28.10
2022-08-17T15:46:10.394Z,28.00
2022-08-17T15:48:43.588Z,28.10
2022-08-17T15:51:18.876Z,28.10
2022-08-17T15:53:50.541Z,28.10
2022-08-17T15:56:19.214Z,28.20
2022-08-17T15:58:50.234Z,28.30
2022-08-17T16:01:45.444Z,28.30
2022-08-17T16:04:26.691Z,28.30
2022-08-17T16:07:00.254Z,28.30
2022-08-17T16:09:28.787Z,28.30
2022-08-17T16:11:56.862Z,28.30
2022-08-17T16:14:25.817Z,28.40
2022-08-17T16:17:01.698Z,28.30
2022-08-17T16:19:29.637Z,28.30
2022-08-17T16:21:59.565Z,28.20
2022-08-17T16:24:27.558Z,28.10
2022-08-17T16:26:55.815Z,28.10
2022-08-17T16:29:23.861Z,28.00
2022-08-17T16:31:52.167Z,28.00
2022-08-17T16:34:21.007Z,27.90
2022-08-17T16:36:55.029Z,27.90
2022-08-17T16:39:28.894Z,27.90
2022-08-17T16:44:44.706Z,27.70
2022-08-17T16:47:17.462Z,27.70
2022-08-17T16:49:45.917Z,27.60
2022-08-17T16:52:14.846Z,27.60
2022-08-17T16:55:05.301Z,27.50
2022-08-17T16:57:33.447Z,27.50
2022-08-17T17:00:01.522Z,27.40
2022-08-17T17:02:33.594Z,27.40
2022-08-17T17:05:08.446Z,27.40
2022-08-17T17:07:56.570Z,27.40
2022-08-17T17:10:37.684Z,27.40
2022-08-17T17:13:12.068Z,27.30
2022-08-17T17:15:54.270Z,27.30
2022-08-17T17:18:42.666Z,27.30
2022-08-17T17:21:17.801Z,27.30
2022-08-17T17:23:58.035Z,27.20
2022-08-17T17:26:59.057Z,27.30
2022-08-17T17:29:51.114Z,27.30
2022-08-17T17:32:29.084Z,27.30
2022-08-17T17:35:06.600Z,27.20
2022-08-17T17:37:36.641Z,27.20
2022-08-17T17:40:19.024Z,27.20
2022-08-17T17:42:51.398Z,27.10
2022-08-17T17:45:25.846Z,27.10
2022-08-17T17:47:54.519Z,27.00
2022-08-17T17:50:33.946Z,27.00
2022-08-17T17:53:08.793Z,27.00
2022-08-17T17:55:51.680Z,26.90
2022-08-17T17:58:39.859Z,26.90
2022-08-17T18:01:41.749Z,26.90
2022-08-17T18:04:23.413Z,26.90
2022-08-17T18:07:11.180Z,26.80
2022-08-17T18:10:04.329Z,26.70
2022-08-17T18:13:03.165Z,26.70
2022-08-17T18:15:41.425Z,26.60
2022-08-17T18:18:42.909Z,26.60
2022-08-17T18:21:19.130Z,26.50
2022-08-17T18:23:53.637Z,26.50
2022-08-17T18:26:50.966Z,26.50
2022-08-17T18:29:43.521Z,26.60
2022-08-17T18:32:33.088Z,26.50
2022-08-17T18:35:27.793Z,26.50
2022-08-17T18:38:20.443Z,26.40
2022-08-17T18:41:01.777Z,26.40
2022-08-17T18:43:43.820Z,26.40
2022-08-17T18:46:31.206Z,26.30
2022-08-17T18:49:03.298Z,26.30
2022-08-17T18:51:41.073Z,26.30
2022-08-17T18:54:23.556Z,26.30
2022-08-17T18:56:57.930Z,26.30
2022-08-17T18:59:36.345Z,26.20
2022-08-17T19:02:45.618Z,26.20
2022-08-17T19:05:25.939Z,26.20
2022-08-17T19:07:55.121Z,26.20
2022-08-17T19:10:31.956Z,26.10
2022-08-17T19:13:21.858Z,26.20
2022-08-17T19:16:10.076Z,26.10
2022-08-17T19:18:51.988Z,26.10
2022-08-17T19:21:27.993Z,26.00
2022-08-17T19:24:07.513Z,26.00
2022-08-17T19:26:54.856Z,26.00
2022-08-17T19:29:34.277Z,26.00
2022-08-17T19:32:03.277Z,25.90
2022-08-17T19:34:35.438Z,25.90
2022-08-17T19:37:14.996Z,25.90
2022-08-17T19:39:56.263Z,25.90
2022-08-17T19:42:37.118Z,25.80
2022-08-17T19:45:20.647Z,25.80
2022-08-17T19:48:03.246Z,25.70
2022-08-17T19:50:41.606Z,25.70
2022-08-17T19:53:41.686Z,25.60
2022-08-17T19:56:24.477Z,25.60
2022-08-17T19:59:02.345Z,25.50
2022-08-17T20:01:39.054Z,25.50
2022-08-17T20:04:15.567Z,25.40
2022-08-17T20:06:50.159Z,25.40
2022-08-17T20:09:33.819Z,25.30
2022-08-17T20:12:09.407Z,25.30
2022-08-17T20:14:53.835Z,25.30
2022-08-17T20:17:30.584Z,25.30
2022-08-17T20:20:12.264Z,25.20
2022-08-17T20:22:58.309Z,25.20
2022-08-17T20:25:39.285Z,25.10
2022-08-17T20:28:24.538Z,25.10
2022-08-17T20:30:53.548Z,25.00
2022-08-17T20:33:29.762Z,25.00
2022-08-17T20:36:21.545Z,24.90
2022-08-17T20:38:54.783Z,24.90
2022-08-17T20:41:27.243Z,24.80
2022-08-17T20:44:06.762Z,24.80
2022-08-17T20:46:57.778Z,24.70
2022-08-17T20:49:42.110Z,24.70
2022-08-17T20:52:15.558Z,24.60
2022-08-17T20:54:50.922Z,24.60
2022-08-17T20:57:48.895Z,24.50
2022-08-17T21:00:45.485Z,24.50
2022-08-17T21:03:50.222Z,24.40
2022-08-17T21:06:25.151Z,24.40
2022-08-17T21:09:29.674Z,24.40
2022-08-17T21:12:04.289Z,24.30
2022-08-17T21:14:59.593Z,24.30
2022-08-17T21:17:56.285Z,24.30
2022-08-17T21:20:40.530Z,24.20
2022-08-17T21:23:31.305Z,24.20
2022-08-17T21:26:30.238Z,24.20
2022-08-17T21:29:29.650Z,24.10
2022-08-17T21:32:24.568Z,24.10
2022-08-17T21:35:28.455Z,24.00
2022-08-17T21:38:05.169Z,24.00
2022-08-17T21:40:36.316Z,24.00
2022-08-17T21:43:23.512Z,23.90
2022-08-17T21:46:24.668Z,23.90
2022-08-17T21:48:57.204Z,23.80
2022-08-17T21:51:30.167Z,23.80
2022-08-17T21:54:02.380Z,23.70
2022-08-17T21:56:36.287Z,23.60
2022-08-17T21:59:09.326Z,23.60
2022-08-17T22:01:41.312Z,23.60
2022-08-17T22:04:25.247Z,23.50
2022-08-17T22:06:57.202Z,23.50
2022-08-17T22:09:31.896Z,23.40
2022-08-17T22:12:06.491Z,23.30
2022-08-17T22:14:53.003Z,23.30
2022-08-17T22:17:25.183Z,23.20
2022-08-17T22:19:56.837Z,23.20
2022-08-17T22:22:35.298Z,23.20
2022-08-17T22:25:20.811Z,23.10
2022-08-17T22:27:55.371Z,23.10
2022-08-17T22:30:37.619Z,23.00
2022-08-17T22:33:36.911Z,23.00
2022-08-17T22:36:29.877Z,23.00
2022-08-17T22:41:51.859Z,22.90
2022-08-17T22:44:29.408Z,22.90
2022-08-17T22:47:11.625Z,22.90
2022-08-17T22:49:53.595Z,22.90
2022-08-17T22:52:34.376Z,22.80
2022-08-17T22:55:30.613Z,22.80
2022-08-17T22:58:17.243Z,22.70
2022-08-17T23:00:48.239Z,22.70
2022-08-17T23:03:20.957Z,22.60
2022-08-17T23:06:05.808Z,22.60
2022-08-17T23:08:37.020Z,22.60
2022-08-17T23:11:07.702Z,22.60
2022-08-17T23:13:37.649Z,22.60
2022-08-17T23:16:06.033Z,22.50
2022-08-17T23:18:36.330Z,22.50
2022-08-17T23:21:07.267Z,22.50
2022-08-17T23:23:37.041Z,22.50
2022-08-17T23:26:05.214Z,22.40
2022-08-17T23:28:37.423Z,22.40
2022-08-17T23:31:06.729Z,22.40
2022-08-17T23:33:37.260Z,22.40
2022-08-17T23:36:06.780Z,22.30
2022-08-17T23:38:34.812Z,22.30
2022-08-17T23:41:11.664Z,22.20
2022-08-17T23:43:40.445Z,22.20
2022-08-17T23:46:08.686Z,22.20
2022-08-17T23:48:38.605Z,22.10
2022-08-17T23:51:12.609Z,22.10
2022-08-17T23:53:47.247Z,22.00
2022-08-17T23:56:17.714Z,22.00
2022-08-17T23:58:46.425Z,22.00
